Terminal Aerodrome Forecast
Issued by NWS

Home | Current Version | Previous Version | Text Only | Print | Product List | Glossary On
Versions: 1 2 3 4 5 6 7 8 9 10 11 12 13 14 15 16 17 18 19 20 21 22 23 24
000
FTUS45 KGJT 250526
TAFASE
TAF
KASE 250526Z 2506/2606 VRB03KT P6SM VCSH BKN060
     FM250900 20004KT P6SM BKN070
     FM251800 34005KT P6SM VCSH SCT060 BKN100
     FM252200 34006KT P6SM VCSH OVC030
     FM260300 22004KT P6SM BKN035=

USA.gov is the U.S. government's official web portal to all federal, state and local government web resources and services.